Аэропорт: Ширак. Гюмри

ICAO: UDSG

METAR:
2020-10-24 06:30:00
UDSG 240630Z VRB01KT 9000 NSC 11/M01 Q1026 R02/CLRD70 NOSIG
METAR:
2020-10-24 05:02:00
TAF UDSG 240502Z 2406/2506 VRB04KT 9999 NSC TEMPO 2408/2418 03014KT FEW050